sensor_id;sensor_type;location;lat;lon;timestamp;temperature;humidity
21244;DHT22;10780;50.942;4.028;2022-12-20T00:01:12;11.60;99.90
21244;DHT22;10780;50.942;4.028;2022-12-20T00:03:38;11.40;99.90
21244;DHT22;10780;50.942;4.028;2022-12-20T00:06:05;11.50;99.90
21244;DHT22;10780;50.942;4.028;2022-12-20T00:08:31;11.60;99.90
21244;DHT22;10780;50.942;4.028;2022-12-20T00:10:59;11.70;99.90
21244;DHT22;10780;50.942;4.028;2022-12-20T00:13:26;11.60;99.90
21244;DHT22;10780;50.942;4.028;2022-12-20T00:16:11;11.50;99.90
21244;DHT22;10780;50.942;4.028;2022-12-20T00:18:38;11.60;99.90
21244;DHT22;10780;50.942;4.028;2022-12-20T00:21:05;11.60;99.90
21244;DHT22;10780;50.942;4.028;2022-12-20T00:23:32;11.70;99.90
21244;DHT22;10780;50.942;4.028;2022-12-20T00:28:31;11.80;99.90
21244;DHT22;10780;50.942;4.028;2022-12-20T00:30:57;11.70;99.90
21244;DHT22;10780;50.942;4.028;2022-12-20T00:33:23;11.60;99.90
21244;DHT22;10780;50.942;4.028;2022-12-20T00:35:49;11.60;99.90
21244;DHT22;10780;50.942;4.028;2022-12-20T00:38:14;11.60;99.90
21244;DHT22;10780;50.942;4.028;2022-12-20T00:40:40;11.60;99.90
21244;DHT22;10780;50.942;4.028;2022-12-20T00:43:06;11.50;99.90
21244;DHT22;10780;50.942;4.028;2022-12-20T00:45:31;11.40;99.90
21244;DHT22;10780;50.942;4.028;2022-12-20T00:47:57;11.30;99.90
21244;DHT22;10780;50.942;4.028;2022-12-20T00:50:23;11.20;99.90
21244;DHT22;10780;50.942;4.028;2022-12-20T00:52:48;11.30;99.90
21244;DHT22;10780;50.942;4.028;2022-12-20T00:55:14;11.20;99.90
21244;DHT22;10780;50.942;4.028;2022-12-20T00:57:40;11.10;99.90
21244;DHT22;10780;50.942;4.028;2022-12-20T01:00:06;11.10;99.90
21244;DHT22;10780;50.942;4.028;2022-12-20T01:02:32;11.20;99.90
21244;DHT22;10780;50.942;4.028;2022-12-20T01:04:57;11.10;99.90
21244;DHT22;10780;50.942;4.028;2022-12-20T01:07:23;11.10;99.90
21244;DHT22;10780;50.942;4.028;2022-12-20T01:09:49;11.00;99.90
21244;DHT22;10780;50.942;4.028;2022-12-20T01:12:15;11.20;99.90
21244;DHT22;10780;50.942;4.028;2022-12-20T01:14:40;11.20;99.90
21244;DHT22;10780;50.942;4.028;2022-12-20T01:17:06;11.10;99.90
21244;DHT22;10780;50.942;4.028;2022-12-20T01:19:32;11.10;99.90
21244;DHT22;10780;50.942;4.028;2022-12-20T01:21:57;11.10;99.90
21244;DHT22;10780;50.942;4.028;2022-12-20T01:24:23;11.00;99.90
21244;DHT22;10780;50.942;4.028;2022-12-20T01:26:49;11.10;99.90
21244;DHT22;10780;50.942;4.028;2022-12-20T01:29:14;11.10;99.90
21244;DHT22;10780;50.942;4.028;2022-12-20T01:31:41;11.10;99.90
21244;DHT22;10780;50.942;4.028;2022-12-20T01:34:06;11.20;99.90
21244;DHT22;10780;50.942;4.028;2022-12-20T01:36:34;11.30;99.90
21244;DHT22;10780;50.942;4.028;2022-12-20T01:39:07;11.40;99.90
21244;DHT22;10780;50.942;4.028;2022-12-20T01:41:34;11.10;99.90
21244;DHT22;10780;50.942;4.028;2022-12-20T01:46:42;11.10;99.90
21244;DHT22;10780;50.942;4.028;2022-12-20T01:49:13;11.10;99.90
21244;DHT22;10780;50.942;4.028;2022-12-20T01:51:54;11.20;99.90
21244;DHT22;10780;50.942;4.028;2022-12-20T01:57:00;11.20;99.90
21244;DHT22;10780;50.942;4.028;2022-12-20T01:59:27;11.10;99.90
21244;DHT22;10780;50.942;4.028;2022-12-20T02:01:57;11.10;99.90
21244;DHT22;10780;50.942;4.028;2022-12-20T02:04:23;11.20;99.90
21244;DHT22;10780;50.942;4.028;2022-12-20T02:06:49;11.30;99.90
21244;DHT22;10780;50.942;4.028;2022-12-20T02:09:14;11.30;99.90
21244;DHT22;10780;50.942;4.028;2022-12-20T02:31:33;11.40;99.90
21244;DHT22;10780;50.942;4.028;2022-12-20T02:34:04;11.40;99.90
21244;DHT22;10780;50.942;4.028;2022-12-20T02:36:31;11.40;99.90
21244;DHT22;10780;50.942;4.028;2022-12-20T02:38:57;11.40;99.90
21244;DHT22;10780;50.942;4.028;2022-12-20T02:41:31;11.40;99.90
21244;DHT22;10780;50.942;4.028;2022-12-20T02:44:08;11.50;99.90
21244;DHT22;10780;50.942;4.028;2022-12-20T02:46:55;11.50;99.90
21244;DHT22;10780;50.942;4.028;2022-12-20T02:49:25;11.50;99.90
21244;DHT22;10780;50.942;4.028;2022-12-20T02:51:55;11.60;99.90
21244;DHT22;10780;50.942;4.028;2022-12-20T02:54:21;11.60;99.90
21244;DHT22;10780;50.942;4.028;2022-12-20T02:56:52;11.50;99.90
21244;DHT22;10780;50.942;4.028;2022-12-20T02:59:25;11.50;99.90
21244;DHT22;10780;50.942;4.028;2022-12-20T03:01:53;11.60;99.90
21244;DHT22;10780;50.942;4.028;2022-12-20T03:04:23;11.60;99.90
21244;DHT22;10780;50.942;4.028;2022-12-20T03:07:03;11.70;99.90
21244;DHT22;10780;50.942;4.028;2022-12-20T03:09:30;11.60;99.90
21244;DHT22;10780;50.942;4.028;2022-12-20T03:11:56;11.70;99.90
21244;DHT22;10780;50.942;4.028;2022-12-20T03:14:21;11.60;99.90
21244;DHT22;10780;50.942;4.028;2022-12-20T03:16:47;11.60;99.90
21244;DHT22;10780;50.942;4.028;2022-12-20T03:19:13;11.60;99.90
21244;DHT22;10780;50.942;4.028;2022-12-20T03:21:38;11.60;99.90
21244;DHT22;10780;50.942;4.028;2022-12-20T03:24:04;11.60;99.90
21244;DHT22;10780;50.942;4.028;2022-12-20T03:26:30;11.50;99.90
21244;DHT22;10780;50.942;4.028;2022-12-20T03:28:56;11.50;99.90
21244;DHT22;10780;50.942;4.028;2022-12-20T03:31:21;11.60;99.90
21244;DHT22;10780;50.942;4.028;2022-12-20T03:33:47;11.70;99.90
21244;DHT22;10780;50.942;4.028;2022-12-20T03:36:13;11.70;99.90
21244;DHT22;10780;50.942;4.028;2022-12-20T03:38:38;11.80;99.90
21244;DHT22;10780;50.942;4.028;2022-12-20T03:41:04;11.90;99.90
21244;DHT22;10780;50.942;4.028;2022-12-20T03:43:30;11.80;99.90
21244;DHT22;10780;50.942;4.028;2022-12-20T03:45:55;11.80;99.90
21244;DHT22;10780;50.942;4.028;2022-12-20T03:48:21;11.80;99.90
21244;DHT22;10780;50.942;4.028;2022-12-20T03:50:46;11.90;99.90
21244;DHT22;10780;50.942;4.028;2022-12-20T03:53:12;12.00;99.90
21244;DHT22;10780;50.942;4.028;2022-12-20T03:55:38;12.00;99.90
21244;DHT22;10780;50.942;4.028;2022-12-20T03:58:03;11.90;99.90
21244;DHT22;10780;50.942;4.028;2022-12-20T04:00:29;11.80;99.90
21244;DHT22;10780;50.942;4.028;2022-12-20T04:02:54;11.80;99.90
21244;DHT22;10780;50.942;4.028;2022-12-20T04:05:20;11.90;99.90
21244;DHT22;10780;50.942;4.028;2022-12-20T04:07:46;11.80;99.90
21244;DHT22;10780;50.942;4.028;2022-12-20T04:10:12;11.70;99.90
21244;DHT22;10780;50.942;4.028;2022-12-20T04:12:38;11.70;99.90
21244;DHT22;10780;50.942;4.028;2022-12-20T04:15:04;11.80;99.90
21244;DHT22;10780;50.942;4.028;2022-12-20T04:17:29;11.90;99.90
21244;DHT22;10780;50.942;4.028;2022-12-20T04:19:55;11.90;99.90
21244;DHT22;10780;50.942;4.028;2022-12-20T04:22:21;11.90;99.90
21244;DHT22;10780;50.942;4.028;2022-12-20T04:24:46;11.90;99.90
21244;DHT22;10780;50.942;4.028;2022-12-20T04:27:12;11.70;99.90
21244;DHT22;10780;50.942;4.028;2022-12-20T04:29:37;11.80;99.90
21244;DHT22;10780;50.942;4.028;2022-12-20T04:32:03;11.80;99.90
21244;DHT22;10780;50.942;4.028;2022-12-20T04:34:29;11.80;99.90
21244;DHT22;10780;50.942;4.028;2022-12-20T04:36:54;11.70;99.90
21244;DHT22;10780;50.942;4.028;2022-12-20T04:39:20;11.70;99.90
21244;DHT22;10780;50.942;4.028;2022-12-20T04:41:46;11.70;99.90
21244;DHT22;10780;50.942;4.028;2022-12-20T04:44:11;11.80;99.90
21244;DHT22;10780;50.942;4.028;2022-12-20T04:46:37;11.80;99.90
21244;DHT22;10780;50.942;4.028;2022-12-20T04:49:02;11.80;99.90
21244;DHT22;10780;50.942;4.028;2022-12-20T04:51:28;11.80;99.90
21244;DHT22;10780;50.942;4.028;2022-12-20T04:53:54;11.60;99.90
21244;DHT22;10780;50.942;4.028;2022-12-20T04:56:27;11.50;99.90
21244;DHT22;10780;50.942;4.028;2022-12-20T04:58:54;11.40;99.90
21244;DHT22;10780;50.942;4.028;2022-12-20T05:01:21;11.30;99.90
21244;DHT22;10780;50.942;4.028;2022-12-20T05:03:46;11.30;99.90
21244;DHT22;10780;50.942;4.028;2022-12-20T05:06:13;11.10;99.90
21244;DHT22;10780;50.942;4.028;2022-12-20T05:08:39;11.00;99.90
21244;DHT22;10780;50.942;4.028;2022-12-20T05:11:05;11.10;99.90
21244;DHT22;10780;50.942;4.028;2022-12-20T05:13:31;11.10;99.90
21244;DHT22;10780;50.942;4.028;2022-12-20T05:15:57;11.20;99.90
21244;DHT22;10780;50.942;4.028;2022-12-20T05:18:24;11.10;99.90
21244;DHT22;10780;50.942;4.028;2022-12-20T05:20:50;11.00;99.90
21244;DHT22;10780;50.942;4.028;2022-12-20T05:23:36;11.10;99.90
21244;DHT22;10780;50.942;4.028;2022-12-20T05:26:20;11.10;99.90
21244;DHT22;10780;50.942;4.028;2022-12-20T05:28:47;11.00;99.90
21244;DHT22;10780;50.942;4.028;2022-12-20T05:31:13;11.10;99.90
21244;DHT22;10780;50.942;4.028;2022-12-20T05:33:38;11.00;99.90
21244;DHT22;10780;50.942;4.028;2022-12-20T05:36:04;11.10;99.90
21244;DHT22;10780;50.942;4.028;2022-12-20T05:38:30;11.20;99.90
21244;DHT22;10780;50.942;4.028;2022-12-20T05:40:56;11.20;99.90
21244;DHT22;10780;50.942;4.028;2022-12-20T05:43:21;11.20;99.90
21244;DHT22;10780;50.942;4.028;2022-12-20T05:45:49;11.20;99.90
21244;DHT22;10780;50.942;4.028;2022-12-20T05:48:16;11.40;99.90
21244;DHT22;10780;50.942;4.028;2022-12-20T05:50:43;11.40;99.90
21244;DHT22;10780;50.942;4.028;2022-12-20T05:53:16;11.30;99.90
21244;DHT22;10780;50.942;4.028;2022-12-20T05:55:47;11.30;99.90
21244;DHT22;10780;50.942;4.028;2022-12-20T05:58:13;11.40;99.90
21244;DHT22;10780;50.942;4.028;2022-12-20T06:00:43;11.50;99.90
21244;DHT22;10780;50.942;4.028;2022-12-20T06:03:10;11.70;99.90
21244;DHT22;10780;50.942;4.028;2022-12-20T06:05:39;11.60;99.90
21244;DHT22;10780;50.942;4.028;2022-12-20T06:08:05;11.60;99.90
21244;DHT22;10780;50.942;4.028;2022-12-20T06:10:32;11.70;99.90
21244;DHT22;10780;50.942;4.028;2022-12-20T06:12:59;11.60;99.90
21244;DHT22;10780;50.942;4.028;2022-12-20T06:15:25;11.60;99.90
21244;DHT22;10780;50.942;4.028;2022-12-20T06:17:51;11.60;99.90
21244;DHT22;10780;50.942;4.028;2022-12-20T06:20:17;11.60;99.90
21244;DHT22;10780;50.942;4.028;2022-12-20T06:22:43;11.60;99.90
21244;DHT22;10780;50.942;4.028;2022-12-20T06:25:08;11.70;99.90
21244;DHT22;10780;50.942;4.028;2022-12-20T06:27:35;11.70;99.90
21244;DHT22;10780;50.942;4.028;2022-12-20T06:30:02;11.70;99.90
21244;DHT22;10780;50.942;4.028;2022-12-20T06:32:28;11.70;99.90
21244;DHT22;10780;50.942;4.028;2022-12-20T06:34:54;11.80;99.90
21244;DHT22;10780;50.942;4.028;2022-12-20T06:37:19;11.80;99.90
21244;DHT22;10780;50.942;4.028;2022-12-20T06:39:45;11.80;99.90
21244;DHT22;10780;50.942;4.028;2022-12-20T06:42:10;11.80;99.90
21244;DHT22;10780;50.942;4.028;2022-12-20T06:44:36;11.90;99.90
21244;DHT22;10780;50.942;4.028;2022-12-20T06:47:02;11.90;99.90
21244;DHT22;10780;50.942;4.028;2022-12-20T06:49:27;11.90;99.90
21244;DHT22;10780;50.942;4.028;2022-12-20T06:51:54;11.80;99.90
21244;DHT22;10780;50.942;4.028;2022-12-20T06:54:20;11.80;99.90
21244;DHT22;10780;50.942;4.028;2022-12-20T06:56:45;11.70;99.90
21244;DHT22;10780;50.942;4.028;2022-12-20T06:59:11;11.70;99.90
21244;DHT22;10780;50.942;4.028;2022-12-20T07:01:37;11.80;99.90
21244;DHT22;10780;50.942;4.028;2022-12-20T07:04:03;11.90;99.90
21244;DHT22;10780;50.942;4.028;2022-12-20T07:06:29;11.80;99.90
21244;DHT22;10780;50.942;4.028;2022-12-20T07:08:55;11.80;99.90
21244;DHT22;10780;50.942;4.028;2022-12-20T07:11:21;11.80;99.90
21244;DHT22;10780;50.942;4.028;2022-12-20T07:13:47;11.70;99.90
21244;DHT22;10780;50.942;4.028;2022-12-20T07:16:14;11.50;99.90
21244;DHT22;10780;50.942;4.028;2022-12-20T07:18:43;11.50;99.90
21244;DHT22;10780;50.942;4.028;2022-12-20T07:21:25;11.50;99.90
21244;DHT22;10780;50.942;4.028;2022-12-20T07:23:53;11.50;99.90
21244;DHT22;10780;50.942;4.028;2022-12-20T07:26:20;11.60;99.90
21244;DHT22;10780;50.942;4.028;2022-12-20T07:28:47;11.50;99.90
21244;DHT22;10780;50.942;4.028;2022-12-20T07:31:13;11.50;99.90
21244;DHT22;10780;50.942;4.028;2022-12-20T07:33:39;11.40;99.90
21244;DHT22;10780;50.942;4.028;2022-12-20T07:36:10;11.40;99.90
21244;DHT22;10780;50.942;4.028;2022-12-20T07:38:36;11.40;99.90
21244;DHT22;10780;50.942;4.028;2022-12-20T07:41:16;11.50;99.90
21244;DHT22;10780;50.942;4.028;2022-12-20T07:43:42;11.50;99.90
21244;DHT22;10780;50.942;4.028;2022-12-20T07:46:09;11.50;99.90
21244;DHT22;10780;50.942;4.028;2022-12-20T07:48:36;11.50;99.90
21244;DHT22;10780;50.942;4.028;2022-12-20T07:51:06;11.50;99.90
21244;DHT22;10780;50.942;4.028;2022-12-20T07:53:34;11.40;99.90
21244;DHT22;10780;50.942;4.028;2022-12-20T07:56:04;11.40;99.90
21244;DHT22;10780;50.942;4.028;2022-12-20T07:58:32;11.50;99.90
21244;DHT22;10780;50.942;4.028;2022-12-20T08:01:00;11.50;99.90
21244;DHT22;10780;50.942;4.028;2022-12-20T08:03:31;11.60;99.90
21244;DHT22;10780;50.942;4.028;2022-12-20T08:06:02;11.50;99.90
21244;DHT22;10780;50.942;4.028;2022-12-20T08:08:31;11.50;99.90
21244;DHT22;10780;50.942;4.028;2022-12-20T08:11:02;11.50;99.90
21244;DHT22;10780;50.942;4.028;2022-12-20T08:13:28;11.60;99.90
21244;DHT22;10780;50.942;4.028;2022-12-20T08:15:56;11.70;99.90
21244;DHT22;10780;50.942;4.028;2022-12-20T08:18:21;11.50;99.90
21244;DHT22;10780;50.942;4.028;2022-12-20T08:20:47;11.60;99.90
21244;DHT22;10780;50.942;4.028;2022-12-20T08:23:13;11.60;99.90
21244;DHT22;10780;50.942;4.028;2022-12-20T08:25:39;11.70;99.90
21244;DHT22;10780;50.942;4.028;2022-12-20T08:28:04;11.80;99.90
21244;DHT22;10780;50.942;4.028;2022-12-20T08:30:30;11.80;99.90
21244;DHT22;10780;50.942;4.028;2022-12-20T08:32:56;11.80;99.90
21244;DHT22;10780;50.942;4.028;2022-12-20T08:35:22;11.70;99.90
21244;DHT22;10780;50.942;4.028;2022-12-20T08:37:51;11.50;99.90
21244;DHT22;10780;50.942;4.028;2022-12-20T08:40:18;11.60;99.90
21244;DHT22;10780;50.942;4.028;2022-12-20T08:42:44;11.70;99.90
21244;DHT22;10780;50.942;4.028;2022-12-20T08:45:10;11.60;99.90
21244;DHT22;10780;50.942;4.028;2022-12-20T08:47:40;11.50;99.90
21244;DHT22;10780;50.942;4.028;2022-12-20T08:50:09;11.40;99.90
21244;DHT22;10780;50.942;4.028;2022-12-20T08:52:34;11.40;99.90
21244;DHT22;10780;50.942;4.028;2022-12-20T08:55:00;11.50;99.90
21244;DHT22;10780;50.942;4.028;2022-12-20T08:57:28;11.50;99.90
21244;DHT22;10780;50.942;4.028;2022-12-20T08:59:54;11.50;99.90
21244;DHT22;10780;50.942;4.028;2022-12-20T09:02:19;11.40;99.90
21244;DHT22;10780;50.942;4.028;2022-12-20T09:04:45;11.40;99.90
21244;DHT22;10780;50.942;4.028;2022-12-20T09:07:11;11.40;99.90
21244;DHT22;10780;50.942;4.028;2022-12-20T09:09:37;11.40;99.90
21244;DHT22;10780;50.942;4.028;2022-12-20T09:12:04;11.30;99.90
21244;DHT22;10780;50.942;4.028;2022-12-20T09:14:32;11.30;99.90
21244;DHT22;10780;50.942;4.028;2022-12-20T09:16:57;11.30;99.90
21244;DHT22;10780;50.942;4.028;2022-12-20T09:19:23;11.20;99.90
21244;DHT22;10780;50.942;4.028;2022-12-20T09:21:48;11.30;99.90
21244;DHT22;10780;50.942;4.028;2022-12-20T09:24:14;11.40;99.90
21244;DHT22;10780;50.942;4.028;2022-12-20T09:26:40;11.40;99.90
21244;DHT22;10780;50.942;4.028;2022-12-20T09:29:05;11.50;99.90
21244;DHT22;10780;50.942;4.028;2022-12-20T09:31:31;11.60;99.90
21244;DHT22;10780;50.942;4.028;2022-12-20T09:33:58;11.50;99.90
21244;DHT22;10780;50.942;4.028;2022-12-20T09:36:25;11.50;99.90
21244;DHT22;10780;50.942;4.028;2022-12-20T09:38:52;11.40;99.90
21244;DHT22;10780;50.942;4.028;2022-12-20T09:41:34;11.50;99.90
21244;DHT22;10780;50.942;4.028;2022-12-20T09:44:35;11.50;99.90
21244;DHT22;10780;50.942;4.028;2022-12-20T09:47:08;11.50;99.90
21244;DHT22;10780;50.942;4.028;2022-12-20T09:49:39;11.50;99.90
21244;DHT22;10780;50.942;4.028;2022-12-20T10:00:18;11.60;99.90
21244;DHT22;10780;50.942;4.028;2022-12-20T10:02:44;11.60;99.90
21244;DHT22;10780;50.942;4.028;2022-12-20T10:05:29;11.60;99.90
21244;DHT22;10780;50.942;4.028;2022-12-20T10:08:11;11.70;99.90
21244;DHT22;10780;50.942;4.028;2022-12-20T10:13:41;11.70;99.90
21244;DHT22;10780;50.942;4.028;2022-12-20T10:16:42;11.80;99.90
21244;DHT22;10780;50.942;4.028;2022-12-20T10:21:49;11.80;99.90
21244;DHT22;10780;50.942;4.028;2022-12-20T10:24:26;12.00;99.90
21244;DHT22;10780;50.942;4.028;2022-12-20T10:26:55;12.00;99.90
21244;DHT22;10780;50.942;4.028;2022-12-20T10:29:22;11.90;99.90
21244;DHT22;10780;50.942;4.028;2022-12-20T10:31:53;11.90;99.90
21244;DHT22;10780;50.942;4.028;2022-12-20T10:34:23;11.90;99.90
21244;DHT22;10780;50.942;4.028;2022-12-20T10:37:09;11.90;99.90
21244;DHT22;10780;50.942;4.028;2022-12-20T10:39:43;12.00;99.90
21244;DHT22;10780;50.942;4.028;2022-12-20T10:42:36;12.10;99.90
21244;DHT22;10780;50.942;4.028;2022-12-20T10:45:26;12.10;99.90
21244;DHT22;10780;50.942;4.028;2022-12-20T10:47:50;12.10;99.90
21244;DHT22;10780;50.942;4.028;2022-12-20T10:50:21;12.20;99.90
21244;DHT22;10780;50.942;4.028;2022-12-20T10:55:39;12.30;99.90
21244;DHT22;10780;50.942;4.028;2022-12-20T10:58:17;12.20;99.90
21244;DHT22;10780;50.942;4.028;2022-12-20T11:00:46;12.20;99.90
21244;DHT22;10780;50.942;4.028;2022-12-20T11:03:17;12.20;99.90
21244;DHT22;10780;50.942;4.028;2022-12-20T11:06:00;12.20;99.90
21244;DHT22;10780;50.942;4.028;2022-12-20T11:08:30;12.20;99.90
21244;DHT22;10780;50.942;4.028;2022-12-20T11:13:42;12.20;99.90
21244;DHT22;10780;50.942;4.028;2022-12-20T11:25:24;12.10;99.90
21244;DHT22;10780;50.942;4.028;2022-12-20T11:30:42;12.20;99.90
21244;DHT22;10780;50.942;4.028;2022-12-20T11:41:25;12.30;99.90
21244;DHT22;10780;50.942;4.028;2022-12-20T11:44:08;12.20;99.90
21244;DHT22;10780;50.942;4.028;2022-12-20T11:52:08;12.10;99.90
21244;DHT22;10780;50.942;4.028;2022-12-20T11:55:03;12.00;99.90
21244;DHT22;10780;50.942;4.028;2022-12-20T11:58:04;11.90;99.90
21244;DHT22;10780;50.942;4.028;2022-12-20T12:00:28;11.80;99.90
21244;DHT22;10780;50.942;4.028;2022-12-20T12:02:58;11.80;99.90
21244;DHT22;10780;50.942;4.028;2022-12-20T12:05:33;11.80;99.90
21244;DHT22;10780;50.942;4.028;2022-12-20T12:08:06;11.90;99.90
21244;DHT22;10780;50.942;4.028;2022-12-20T12:10:40;12.00;99.90
21244;DHT22;10780;50.942;4.028;2022-12-20T12:18:37;12.00;99.90
21244;DHT22;10780;50.942;4.028;2022-12-20T12:21:55;11.80;99.90
21244;DHT22;10780;50.942;4.028;2022-12-20T12:26:41;11.80;99.90
21244;DHT22;10780;50.942;4.028;2022-12-20T12:29:14;11.80;99.90
21244;DHT22;10780;50.942;4.028;2022-12-20T12:31:51;11.80;99.90
21244;DHT22;10780;50.942;4.028;2022-12-20T12:37:16;11.80;99.90
21244;DHT22;10780;50.942;4.028;2022-12-20T12:45:22;11.60;99.90
21244;DHT22;10780;50.942;4.028;2022-12-20T12:47:51;11.60;99.90
21244;DHT22;10780;50.942;4.028;2022-12-20T12:50:42;11.50;99.90
21244;DHT22;10780;50.942;4.028;2022-12-20T12:55:53;11.60;99.90
21244;DHT22;10780;50.942;4.028;2022-12-20T13:03:14;11.70;99.90
21244;DHT22;10780;50.942;4.028;2022-12-20T13:05:41;11.70;99.90
21244;DHT22;10780;50.942;4.028;2022-12-20T13:08:16;11.70;99.90
21244;DHT22;10780;50.942;4.028;2022-12-20T13:10:58;11.70;99.90
21244;DHT22;10780;50.942;4.028;2022-12-20T13:13:23;11.70;99.90
21244;DHT22;10780;50.942;4.028;2022-12-20T13:15:50;11.70;99.90
21244;DHT22;10780;50.942;4.028;2022-12-20T13:18:21;11.60;99.90
21244;DHT22;10780;50.942;4.028;2022-12-20T13:27:47;11.70;99.90
21244;DHT22;10780;50.942;4.028;2022-12-20T13:40:41;11.60;99.90
21244;DHT22;10780;50.942;4.028;2022-12-20T13:51:03;11.80;99.90
21244;DHT22;10780;50.942;4.028;2022-12-20T13:53:29;11.80;99.90
21244;DHT22;10780;50.942;4.028;2022-12-20T13:55:56;11.60;99.90
21244;DHT22;10780;50.942;4.028;2022-12-20T13:58:27;11.60;99.90
21244;DHT22;10780;50.942;4.028;2022-12-20T14:01:04;11.50;99.90
21244;DHT22;10780;50.942;4.028;2022-12-20T14:03:31;11.40;99.90
21244;DHT22;10780;50.942;4.028;2022-12-20T14:06:02;11.50;99.90
21244;DHT22;10780;50.942;4.028;2022-12-20T14:08:31;11.60;99.90
21244;DHT22;10780;50.942;4.028;2022-12-20T14:11:09;11.60;99.90
21244;DHT22;10780;50.942;4.028;2022-12-20T14:13:35;11.70;99.90
21244;DHT22;10780;50.942;4.028;2022-12-20T14:16:10;11.70;99.90
21244;DHT22;10780;50.942;4.028;2022-12-20T14:18:38;11.70;99.90
21244;DHT22;10780;50.942;4.028;2022-12-20T14:21:06;11.70;99.90
21244;DHT22;10780;50.942;4.028;2022-12-20T14:23:45;11.90;99.90
21244;DHT22;10780;50.942;4.028;2022-12-20T14:26:20;11.90;99.90
21244;DHT22;10780;50.942;4.028;2022-12-20T14:28:51;11.90;99.90
21244;DHT22;10780;50.942;4.028;2022-12-20T14:36:36;11.90;99.90
21244;DHT22;10780;50.942;4.028;2022-12-20T14:39:28;11.90;99.90
21244;DHT22;10780;50.942;4.028;2022-12-20T14:41:56;11.90;99.90
21244;DHT22;10780;50.942;4.028;2022-12-20T14:44:24;11.90;99.90
21244;DHT22;10780;50.942;4.028;2022-12-20T14:46:55;11.90;99.90
21244;DHT22;10780;50.942;4.028;2022-12-20T14:49:32;11.90;99.90
21244;DHT22;10780;50.942;4.028;2022-12-20T14:54:31;11.70;99.90
21244;DHT22;10780;50.942;4.028;2022-12-20T14:56:57;11.80;99.90
21244;DHT22;10780;50.942;4.028;2022-12-20T14:59:28;11.80;99.90
21244;DHT22;10780;50.942;4.028;2022-12-20T15:01:56;11.70;99.90
21244;DHT22;10780;50.942;4.028;2022-12-20T15:04:33;11.70;99.90
21244;DHT22;10780;50.942;4.028;2022-12-20T15:07:01;11.70;99.90
21244;DHT22;10780;50.942;4.028;2022-12-20T15:09:27;11.70;99.90
21244;DHT22;10780;50.942;4.028;2022-12-20T15:11:54;11.60;99.90
21244;DHT22;10780;50.942;4.028;2022-12-20T15:14:35;11.60;99.90
21244;DHT22;10780;50.942;4.028;2022-12-20T15:17:12;11.70;99.90
21244;DHT22;10780;50.942;4.028;2022-12-20T15:19:42;11.60;99.90
21244;DHT22;10780;50.942;4.028;2022-12-20T15:22:16;11.60;99.90
21244;DHT22;10780;50.942;4.028;2022-12-20T15:24:43;11.60;99.90
21244;DHT22;10780;50.942;4.028;2022-12-20T15:27:13;11.60;99.90
21244;DHT22;10780;50.942;4.028;2022-12-20T15:29:39;11.60;99.90
21244;DHT22;10780;50.942;4.028;2022-12-20T15:32:10;11.70;99.90
21244;DHT22;10780;50.942;4.028;2022-12-20T15:34:39;11.60;99.90
21244;DHT22;10780;50.942;4.028;2022-12-20T15:37:05;11.70;99.90
21244;DHT22;10780;50.942;4.028;2022-12-20T15:39:32;11.60;99.90
21244;DHT22;10780;50.942;4.028;2022-12-20T15:42:00;11.60;99.90
21244;DHT22;10780;50.942;4.028;2022-12-20T15:44:27;11.60;99.90
21244;DHT22;10780;50.942;4.028;2022-12-20T15:46:54;11.60;99.90
21244;DHT22;10780;50.942;4.028;2022-12-20T15:49:29;11.60;99.90
21244;DHT22;10780;50.942;4.028;2022-12-20T15:51:55;11.60;99.90
21244;DHT22;10780;50.942;4.028;2022-12-20T15:54:33;11.70;99.90
21244;DHT22;10780;50.942;4.028;2022-12-20T15:57:02;11.80;99.90
21244;DHT22;10780;50.942;4.028;2022-12-20T15:59:28;11.90;99.90
21244;DHT22;10780;50.942;4.028;2022-12-20T16:01:54;11.90;99.90
21244;DHT22;10780;50.942;4.028;2022-12-20T16:04:21;12.00;99.90
21244;DHT22;10780;50.942;4.028;2022-12-20T16:06:48;11.90;99.90
21244;DHT22;10780;50.942;4.028;2022-12-20T16:09:15;11.90;99.90
21244;DHT22;10780;50.942;4.028;2022-12-20T16:11:41;12.00;99.90
21244;DHT22;10780;50.942;4.028;2022-12-20T16:14:15;11.90;99.90
21244;DHT22;10780;50.942;4.028;2022-12-20T16:16:42;11.90;99.90
21244;DHT22;10780;50.942;4.028;2022-12-20T16:19:09;11.80;99.90
21244;DHT22;10780;50.942;4.028;2022-12-20T16:21:48;11.80;99.90
21244;DHT22;10780;50.942;4.028;2022-12-20T16:24:18;11.80;99.90
21244;DHT22;10780;50.942;4.028;2022-12-20T16:26:45;11.60;99.90
21244;DHT22;10780;50.942;4.028;2022-12-20T16:29:12;11.60;99.90
21244;DHT22;10780;50.942;4.028;2022-12-20T16:31:39;11.60;99.90
21244;DHT22;10780;50.942;4.028;2022-12-20T16:34:12;11.50;99.90
21244;DHT22;10780;50.942;4.028;2022-12-20T16:36:38;11.60;99.90
21244;DHT22;10780;50.942;4.028;2022-12-20T16:39:03;11.60;99.90
21244;DHT22;10780;50.942;4.028;2022-12-20T16:41:31;11.70;99.90
21244;DHT22;10780;50.942;4.028;2022-12-20T16:43:59;11.60;99.90
21244;DHT22;10780;50.942;4.028;2022-12-20T16:46:26;11.50;99.90
21244;DHT22;10780;50.942;4.028;2022-12-20T16:48:54;11.40;99.90
21244;DHT22;10780;50.942;4.028;2022-12-20T16:51:38;11.50;99.90
21244;DHT22;10780;50.942;4.028;2022-12-20T16:54:06;11.50;99.90
21244;DHT22;10780;50.942;4.028;2022-12-20T16:56:33;11.50;99.90
21244;DHT22;10780;50.942;4.028;2022-12-20T16:58:59;11.60;99.90
21244;DHT22;10780;50.942;4.028;2022-12-20T17:01:30;11.70;99.90
21244;DHT22;10780;50.942;4.028;2022-12-20T17:03:57;11.80;99.90
21244;DHT22;10780;50.942;4.028;2022-12-20T17:06:23;11.70;99.90
21244;DHT22;10780;50.942;4.028;2022-12-20T17:08:48;11.70;99.90
21244;DHT22;10780;50.942;4.028;2022-12-20T17:11:19;11.50;99.90
21244;DHT22;10780;50.942;4.028;2022-12-20T17:13:48;11.50;99.90
21244;DHT22;10780;50.942;4.028;2022-12-20T17:16:15;11.60;99.90
21244;DHT22;10780;50.942;4.028;2022-12-20T17:18:43;11.60;99.90
21244;DHT22;10780;50.942;4.028;2022-12-20T17:23:44;11.70;99.90
21244;DHT22;10780;50.942;4.028;2022-12-20T17:26:17;11.70;99.90
21244;DHT22;10780;50.942;4.028;2022-12-20T17:28:44;11.80;99.90
21244;DHT22;10780;50.942;4.028;2022-12-20T17:31:29;11.70;99.90
21244;DHT22;10780;50.942;4.028;2022-12-20T17:33:57;11.70;99.90
21244;DHT22;10780;50.942;4.028;2022-12-20T17:36:23;11.70;99.90
21244;DHT22;10780;50.942;4.028;2022-12-20T17:38:49;11.70;99.90
21244;DHT22;10780;50.942;4.028;2022-12-20T17:41:22;11.60;99.90
21244;DHT22;10780;50.942;4.028;2022-12-20T17:43:48;11.50;99.90
21244;DHT22;10780;50.942;4.028;2022-12-20T17:46:14;11.30;99.90
21244;DHT22;10780;50.942;4.028;2022-12-20T17:48:41;11.50;99.90
21244;DHT22;10780;50.942;4.028;2022-12-20T17:51:27;11.50;99.90
21244;DHT22;10780;50.942;4.028;2022-12-20T17:53:55;11.50;99.90